createdAt,value
2019-03-09T00:01:48.802Z,4.38
2019-03-09T00:04:20.045Z,4.36
2019-03-09T00:06:51.332Z,4.36
2019-03-09T00:09:22.170Z,4.29
2019-03-09T00:11:58.426Z,4.24
2019-03-09T00:14:31.967Z,4.23
2019-03-09T00:17:04.191Z,4.22
2019-03-09T00:19:35.941Z,4.25
2019-03-09T00:22:08.737Z,4.27
2019-03-09T00:24:55.521Z,4.24
2019-03-09T00:28:00.895Z,4.19
2019-03-09T00:30:42.884Z,4.19
2019-03-09T00:33:14.317Z,4.18
2019-03-09T00:35:45.126Z,4.22
2019-03-09T00:38:15.918Z,4.20
2019-03-09T00:40:46.698Z,4.21
2019-03-09T00:43:17.461Z,4.28
2019-03-09T00:45:48.749Z,4.27
2019-03-09T00:48:19.974Z,4.20
2019-03-09T00:50:50.785Z,4.21
2019-03-09T00:53:21.964Z,4.21
2019-03-09T00:55:53.783Z,4.26
2019-03-09T00:58:24.630Z,4.20
2019-03-09T01:00:55.466Z,4.25
2019-03-09T01:03:26.740Z,4.28
2019-03-09T01:05:57.544Z,4.25
2019-03-09T01:08:28.381Z,4.24
2019-03-09T01:10:59.184Z,4.30
2019-03-09T01:13:30.473Z,4.37
2019-03-09T01:16:04.438Z,4.39
2019-03-09T01:18:35.954Z,4.42
2019-03-09T01:21:07.106Z,4.45
2019-03-09T01:23:40.529Z,4.46
2019-03-09T01:26:11.410Z,4.49
2019-03-09T01:28:43.003Z,4.45
2019-03-09T01:31:15.067Z,4.42
2019-03-09T01:33:45.865Z,4.40
2019-03-09T01:36:16.669Z,4.37
2019-03-09T01:38:47.469Z,4.36
2019-03-09T01:41:18.260Z,4.37
2019-03-09T01:43:49.447Z,4.38
2019-03-09T01:46:20.350Z,4.34
2019-03-09T01:48:51.407Z,4.27
2019-03-09T01:51:22.518Z,4.23
2019-03-09T01:53:54.508Z,4.19
2019-03-09T01:56:25.255Z,4.16
2019-03-09T01:58:57.620Z,4.14
2019-03-09T02:01:31.529Z,4.11
2019-03-09T02:04:05.800Z,4.09
2019-03-09T02:06:36.690Z,4.07
2019-03-09T02:09:14.056Z,4.04
2019-03-09T02:11:44.587Z,4.07
2019-03-09T02:14:15.396Z,4.06
2019-03-09T02:16:46.203Z,4.05
2019-03-09T02:19:22.235Z,4.01
2019-03-09T02:21:53.012Z,4.03
2019-03-09T02:24:24.096Z,4.02
2019-03-09T02:26:55.068Z,4.01
2019-03-09T02:29:25.895Z,3.95
2019-03-09T02:31:58.355Z,3.93
2019-03-09T02:34:30.452Z,3.93
2019-03-09T02:37:01.257Z,3.89
2019-03-09T02:39:41.074Z,3.94
2019-03-09T02:42:11.978Z,3.85
2019-03-09T02:44:43.205Z,3.90
2019-03-09T02:47:14.468Z,3.90
2019-03-09T02:49:45.286Z,3.95
2019-03-09T02:52:16.150Z,3.93
2019-03-09T02:54:47.045Z,3.95
2019-03-09T02:57:20.444Z,3.97
2019-03-09T02:59:53.038Z,3.91
2019-03-09T03:02:45.734Z,3.88
2019-03-09T03:05:17.509Z,3.88
2019-03-09T03:07:48.663Z,3.89
2019-03-09T03:10:19.893Z,3.93
2019-03-09T03:12:51.913Z,3.93
2019-03-09T03:15:48.243Z,3.95
2019-03-09T03:18:19.341Z,4.01
2019-03-09T03:20:50.150Z,4.01
2019-03-09T03:23:20.962Z,4.08
2019-03-09T03:25:51.802Z,4.17
2019-03-09T03:28:22.618Z,4.18
2019-03-09T03:30:53.404Z,4.20
2019-03-09T03:33:24.625Z,4.20
2019-03-09T03:35:55.455Z,4.19
2019-03-09T03:38:26.297Z,4.19
2019-03-09T03:40:57.171Z,4.22
2019-03-09T03:43:28.127Z,4.29
2019-03-09T03:45:59.221Z,4.27
2019-03-09T03:48:30.419Z,4.25
2019-03-09T03:51:01.300Z,4.24
2019-03-09T03:53:32.121Z,4.26
2019-03-09T03:56:03.466Z,4.37
2019-03-09T03:58:34.336Z,4.37
2019-03-09T04:01:05.198Z,4.33
2019-03-09T04:03:36.650Z,4.36
2019-03-09T04:06:07.537Z,4.35
2019-03-09T04:08:40.709Z,4.36
2019-03-09T04:11:11.924Z,4.33
2019-03-09T04:13:44.228Z,4.27
2019-03-09T04:16:15.048Z,4.23
2019-03-09T04:18:46.382Z,4.23
2019-03-09T04:21:22.757Z,4.27
2019-03-09T04:23:53.689Z,4.24
2019-03-09T04:26:25.002Z,4.31
2019-03-09T04:28:55.793Z,4.35
2019-03-09T04:31:26.620Z,4.35
2019-03-09T04:33:57.484Z,4.41
2019-03-09T04:36:28.669Z,4.44
2019-03-09T04:39:00.880Z,4.48
2019-03-09T04:41:33.314Z,4.54
2019-03-09T04:44:04.590Z,4.53
2019-03-09T04:46:35.504Z,4.57
2019-03-09T04:49:06.450Z,4.60
2019-03-09T04:51:37.266Z,4.63
2019-03-09T04:54:08.064Z,4.68
2019-03-09T04:56:39.291Z,4.76
2019-03-09T04:59:10.126Z,4.78
2019-03-09T05:01:40.928Z,4.75
2019-03-09T05:04:52.640Z,4.73
2019-03-09T05:07:49.829Z,4.71
2019-03-09T05:10:50.409Z,4.78
2019-03-09T05:13:33.551Z,4.79
2019-03-09T05:16:04.366Z,4.83
2019-03-09T05:18:35.653Z,4.89
2019-03-09T05:21:06.515Z,4.91
2019-03-09T05:23:37.306Z,4.97
2019-03-09T05:26:08.502Z,5.07
2019-03-09T05:28:39.823Z,5.10
2019-03-09T05:31:10.673Z,5.09
2019-03-09T05:33:41.538Z,5.13
2019-03-09T05:36:12.309Z,5.14
2019-03-09T05:38:43.646Z,5.18
2019-03-09T05:41:14.457Z,5.21
2019-03-09T05:43:48.341Z,5.28
2019-03-09T05:46:19.217Z,5.27
2019-03-09T05:48:50.457Z,5.29
2019-03-09T05:51:21.280Z,5.33
2019-03-09T05:53:52.235Z,5.33
2019-03-09T05:56:23.685Z,5.30
2019-03-09T05:58:54.508Z,5.29
2019-03-09T06:01:25.347Z,5.26
2019-03-09T06:03:56.174Z,5.21
2019-03-09T06:06:26.983Z,5.15
2019-03-09T06:08:57.810Z,5.08
2019-03-09T06:11:29.025Z,5.00
2019-03-09T06:13:59.849Z,4.91
2019-03-09T06:16:30.663Z,4.83
2019-03-09T06:19:01.531Z,4.76
2019-03-09T06:21:32.884Z,4.69
2019-03-09T06:24:03.722Z,4.67
2019-03-09T06:26:34.525Z,4.62
2019-03-09T06:29:05.292Z,4.59
2019-03-09T06:31:42.769Z,4.53
2019-03-09T06:34:19.680Z,4.49
2019-03-09T06:37:06.326Z,4.44
2019-03-09T06:39:45.963Z,4.42
2019-03-09T06:42:49.016Z,4.39
2019-03-09T06:45:20.558Z,4.38
2019-03-09T06:47:54.777Z,4.34
2019-03-09T06:50:39.433Z,4.30
2019-03-09T06:53:25.790Z,4.29
2019-03-09T06:55:56.572Z,4.25
2019-03-09T06:58:27.411Z,4.26
2019-03-09T07:01:00.485Z,4.27
2019-03-09T07:03:31.497Z,4.28
2019-03-09T07:06:02.366Z,4.29
2019-03-09T07:08:33.327Z,4.30
2019-03-09T07:11:04.125Z,4.30
2019-03-09T07:13:36.061Z,4.30
2019-03-09T07:16:07.327Z,4.27
2019-03-09T07:18:42.842Z,4.27
2019-03-09T07:21:13.682Z,4.30
2019-03-09T07:23:44.472Z,4.26
2019-03-09T07:26:15.499Z,4.24
2019-03-09T07:28:46.691Z,4.26
2019-03-09T07:31:18.178Z,4.26
2019-03-09T07:34:05.346Z,4.30
2019-03-09T07:36:36.664Z,4.37
2019-03-09T07:39:10.494Z,4.44
2019-03-09T07:41:42.135Z,4.53
2019-03-09T07:44:14.550Z,4.59
2019-03-09T07:46:45.776Z,4.67
2019-03-09T07:49:19.491Z,4.74
2019-03-09T07:51:50.282Z,4.81
2019-03-09T07:54:42.598Z,4.84
2019-03-09T07:57:44.271Z,4.88
2019-03-09T08:00:22.848Z,4.89
2019-03-09T08:02:53.670Z,4.97
2019-03-09T08:05:26.391Z,5.00
2019-03-09T08:07:57.483Z,5.08
2019-03-09T08:10:31.848Z,5.11
2019-03-09T08:13:02.663Z,5.16
2019-03-09T08:15:33.583Z,5.18
2019-03-09T08:18:04.818Z,5.22
2019-03-09T08:20:37.864Z,5.27
2019-03-09T08:23:09.077Z,5.36
2019-03-09T08:25:45.749Z,5.45
2019-03-09T08:28:17.132Z,5.55
2019-03-09T08:30:48.022Z,5.60
2019-03-09T08:33:22.112Z,5.71
2019-03-09T08:35:55.195Z,5.81
2019-03-09T08:38:32.065Z,5.87
2019-03-09T08:41:03.221Z,5.94
2019-03-09T08:43:34.411Z,5.95
2019-03-09T08:46:05.543Z,5.91
2019-03-09T08:48:36.473Z,5.95
2019-03-09T08:51:13.002Z,5.94
2019-03-09T08:53:44.204Z,5.95
2019-03-09T08:56:15.496Z,6.01
2019-03-09T08:58:52.659Z,6.12
2019-03-09T09:01:26.318Z,6.16
2019-03-09T09:03:59.956Z,6.21
2019-03-09T09:06:30.844Z,6.26
2019-03-09T09:09:08.645Z,6.31
2019-03-09T09:11:44.446Z,6.34
2019-03-09T09:14:15.212Z,6.37
2019-03-09T09:16:46.353Z,6.37
2019-03-09T09:19:22.387Z,6.37
2019-03-09T09:21:53.515Z,6.38
2019-03-09T09:24:24.830Z,6.43
2019-03-09T09:26:57.001Z,6.50
2019-03-09T09:29:29.082Z,6.54
2019-03-09T09:32:00.166Z,6.54
2019-03-09T09:34:31.036Z,6.54
2019-03-09T09:37:09.098Z,6.52
2019-03-09T09:39:39.974Z,6.53
2019-03-09T09:42:12.493Z,6.54
2019-03-09T09:44:44.213Z,6.56
2019-03-09T09:47:15.597Z,6.61
2019-03-09T09:49:47.171Z,6.64
2019-03-09T09:52:19.353Z,6.67
2019-03-09T09:54:50.158Z,6.69
2019-03-09T09:57:21.245Z,6.70
2019-03-09T09:59:52.739Z,6.75
2019-03-09T10:02:23.583Z,6.80
2019-03-09T10:04:57.015Z,6.92
2019-03-09T10:07:30.300Z,7.02
2019-03-09T10:10:03.051Z,7.15
2019-03-09T10:12:34.418Z,7.24
2019-03-09T10:15:05.922Z,7.37
2019-03-09T10:17:38.339Z,7.50
2019-03-09T10:20:10.202Z,7.68
2019-03-09T10:22:41.415Z,7.88
2019-03-09T10:25:12.705Z,8.06
2019-03-09T10:27:45.548Z,8.09
2019-03-09T10:30:21.915Z,8.04
2019-03-09T10:32:53.585Z,7.96
2019-03-09T10:35:24.514Z,7.95
2019-03-09T10:37:59.964Z,7.98
2019-03-09T10:40:31.027Z,7.94
2019-03-09T10:43:03.390Z,7.87
2019-03-09T10:45:34.859Z,7.89
2019-03-09T10:48:12.497Z,8.00
2019-03-09T10:50:43.396Z,8.05
2019-03-09T10:53:19.114Z,8.12
2019-03-09T10:55:51.581Z,8.14
2019-03-09T10:58:39.378Z,8.19
2019-03-09T11:01:11.987Z,8.22
2019-03-09T11:03:43.028Z,8.30
2019-03-09T11:06:15.141Z,8.48
2019-03-09T11:08:46.215Z,8.69
2019-03-09T11:11:21.794Z,8.88
2019-03-09T11:13:53.286Z,8.85
2019-03-09T11:16:27.425Z,8.87
2019-03-09T11:18:59.595Z,8.90
2019-03-09T11:21:30.526Z,8.85
2019-03-09T11:24:01.539Z,8.87
2019-03-09T11:26:34.753Z,8.87
2019-03-09T11:29:10.021Z,8.76
2019-03-09T11:31:46.316Z,8.72
2019-03-09T11:34:20.024Z,8.66
2019-03-09T11:36:55.034Z,8.67
2019-03-09T11:39:28.151Z,8.74
2019-03-09T11:42:01.702Z,8.76
2019-03-09T11:44:36.570Z,8.83
2019-03-09T11:47:09.425Z,8.91
2019-03-09T11:49:43.195Z,8.86
2019-03-09T11:52:20.723Z,8.82
2019-03-09T11:54:54.130Z,8.90
2019-03-09T11:57:26.739Z,8.91
2019-03-09T11:59:57.557Z,8.89
2019-03-09T12:02:39.214Z,8.87
2019-03-09T12:05:18.582Z,8.91
2019-03-09T12:07:52.664Z,8.94
2019-03-09T12:10:27.534Z,8.87
2019-03-09T12:12:58.377Z,8.85
2019-03-09T12:15:32.900Z,8.81
2019-03-09T12:18:07.814Z,8.76
2019-03-09T12:20:38.625Z,8.73
2019-03-09T12:23:23.389Z,8.74
2019-03-09T12:25:57.180Z,8.76
2019-03-09T12:28:32.693Z,8.71
2019-03-09T12:31:05.177Z,8.70
2019-03-09T12:33:36.285Z,8.69
2019-03-09T12:36:07.245Z,8.60
2019-03-09T12:38:38.482Z,8.56
2019-03-09T12:41:09.313Z,8.52
2019-03-09T12:43:53.439Z,8.45
2019-03-09T12:46:27.582Z,8.40
2019-03-09T12:48:58.552Z,8.37
2019-03-09T12:51:31.349Z,8.40
2019-03-09T12:54:03.400Z,8.45
2019-03-09T12:56:34.923Z,8.58
2019-03-09T12:59:05.999Z,8.59
2019-03-09T13:01:37.934Z,8.65
2019-03-09T13:04:15.242Z,8.62
2019-03-09T13:06:47.615Z,8.63
2019-03-09T13:09:18.511Z,8.63
2019-03-09T13:11:49.900Z,8.58
2019-03-09T13:14:42.425Z,8.61
2019-03-09T13:17:32.923Z,8.56
2019-03-09T13:20:06.053Z,8.51
2019-03-09T13:22:39.476Z,8.53
2019-03-09T13:25:11.509Z,8.57
2019-03-09T13:27:42.958Z,8.60
2019-03-09T13:30:16.516Z,8.57
2019-03-09T13:32:47.287Z,8.60
2019-03-09T13:35:18.394Z,8.58
2019-03-09T13:37:52.505Z,8.61
2019-03-09T13:40:26.483Z,8.52
2019-03-09T13:42:57.422Z,8.43
2019-03-09T13:45:28.272Z,8.37
2019-03-09T13:47:59.583Z,8.35
2019-03-09T13:50:30.480Z,8.34
2019-03-09T13:53:01.340Z,8.31
2019-03-09T13:55:32.434Z,8.32
2019-03-09T13:58:06.555Z,8.37
2019-03-09T14:00:41.002Z,8.31
2019-03-09T14:03:12.397Z,8.36
2019-03-09T14:05:43.315Z,8.32
2019-03-09T14:08:26.978Z,8.30
2019-03-09T14:11:03.183Z,8.33
2019-03-09T14:13:35.605Z,8.35
2019-03-09T14:16:06.573Z,8.35
2019-03-09T14:18:39.637Z,8.37
2019-03-09T14:21:15.263Z,8.43
2019-03-09T14:23:48.673Z,8.45
2019-03-09T14:26:19.503Z,8.47
2019-03-09T14:28:51.931Z,8.41
2019-03-09T14:31:22.951Z,8.39
2019-03-09T14:33:54.659Z,8.41
2019-03-09T14:36:25.586Z,8.53
2019-03-09T14:38:56.590Z,8.60
2019-03-09T14:41:27.392Z,8.76
2019-03-09T14:44:01.935Z,8.76
2019-03-09T14:46:33.514Z,8.81
2019-03-09T14:49:04.452Z,8.77
2019-03-09T14:51:35.425Z,8.62
2019-03-09T14:54:06.326Z,8.53
2019-03-09T14:56:40.143Z,8.50
2019-03-09T14:59:12.462Z,8.47
2019-03-09T15:01:43.560Z,8.43
2019-03-09T15:04:14.836Z,8.44
2019-03-09T15:06:49.335Z,8.60
2019-03-09T15:09:21.652Z,8.79
2019-03-09T15:11:52.890Z,9.06
2019-03-09T15:14:23.874Z,9.27
2019-03-09T15:16:55.908Z,9.39
2019-03-09T15:20:15.283Z,9.30
2019-03-09T15:23:12.442Z,9.20
2019-03-09T15:25:46.118Z,9.08
2019-03-09T15:28:24.276Z,9.04
2019-03-09T15:31:04.979Z,8.92
2019-03-09T15:33:41.756Z,8.87
2019-03-09T15:36:12.981Z,8.80
2019-03-09T15:38:49.904Z,8.70
2019-03-09T15:41:26.301Z,8.68
2019-03-09T15:43:59.280Z,8.62
2019-03-09T15:46:37.184Z,8.58
2019-03-09T15:49:09.709Z,8.52
2019-03-09T15:51:44.170Z,8.44
2019-03-09T15:54:15.521Z,8.33
2019-03-09T15:56:46.522Z,8.24
2019-03-09T15:59:18.179Z,8.16
2019-03-09T16:01:49.098Z,8.09
2019-03-09T16:04:22.406Z,8.04
2019-03-09T16:06:53.774Z,7.97
2019-03-09T16:09:41.882Z,7.93
2019-03-09T16:12:15.559Z,7.85
2019-03-09T16:14:59.088Z,7.75
2019-03-09T16:17:40.913Z,7.69
2019-03-09T16:20:29.194Z,7.66
2019-03-09T16:23:05.900Z,7.65
2019-03-09T16:25:51.402Z,7.61
2019-03-09T16:28:25.733Z,7.65
2019-03-09T16:31:00.240Z,7.63
2019-03-09T16:33:37.318Z,7.62
2019-03-09T16:36:11.339Z,7.60
2019-03-09T16:38:42.534Z,7.58
2019-03-09T16:44:30.981Z,7.49
2019-03-09T16:47:15.140Z,7.37
2019-03-09T16:49:49.226Z,7.15
2019-03-09T16:52:21.422Z,6.99
2019-03-09T16:55:09.022Z,6.89
2019-03-09T16:57:44.500Z,6.78
2019-03-09T17:00:22.292Z,6.72
2019-03-09T17:02:54.487Z,6.63
2019-03-09T17:05:29.605Z,6.59
2019-03-09T17:08:00.452Z,6.58
2019-03-09T17:10:33.185Z,6.57
2019-03-09T17:13:04.404Z,6.53
2019-03-09T17:15:35.591Z,6.51
2019-03-09T17:18:08.444Z,6.50
2019-03-09T17:20:56.827Z,6.49
2019-03-09T17:23:31.896Z,6.49
2019-03-09T17:26:07.085Z,6.44
2019-03-09T17:28:38.109Z,6.44
2019-03-09T17:31:11.902Z,6.38
2019-03-09T17:33:44.256Z,6.37
2019-03-09T17:36:15.769Z,6.36
2019-03-09T17:38:46.638Z,6.37
2019-03-09T17:41:17.470Z,6.35
2019-03-09T17:43:48.598Z,6.36
2019-03-09T17:46:20.529Z,6.37
2019-03-09T17:48:51.379Z,6.39
2019-03-09T17:51:22.194Z,6.42
2019-03-09T17:53:53.075Z,6.51
2019-03-09T17:56:24.458Z,6.53
2019-03-09T17:59:30.128Z,6.52
2019-03-09T18:02:57.387Z,6.54
2019-03-09T18:05:34.770Z,6.57
2019-03-09T18:08:12.483Z,6.49
2019-03-09T18:10:50.367Z,6.47
2019-03-09T18:13:25.415Z,6.41
2019-03-09T18:15:59.796Z,6.38
2019-03-09T18:18:31.625Z,6.38
2019-03-09T18:21:02.575Z,6.34
2019-03-09T18:23:33.900Z,6.33
2019-03-09T18:26:05.063Z,6.36
2019-03-09T18:28:36.218Z,6.27
2019-03-09T18:31:07.629Z,6.27
2019-03-09T18:33:39.157Z,6.26
2019-03-09T18:36:11.252Z,6.22
2019-03-09T18:38:43.765Z,6.17
2019-03-09T18:41:27.618Z,6.14
2019-03-09T18:44:05.191Z,6.12
2019-03-09T18:46:36.700Z,6.11
2019-03-09T18:49:12.924Z,6.05
2019-03-09T18:51:47.275Z,5.99
2019-03-09T18:54:24.083Z,5.94
2019-03-09T18:57:01.495Z,5.91
2019-03-09T18:59:35.832Z,5.87
2019-03-09T19:02:07.816Z,5.86
2019-03-09T19:04:38.670Z,5.94
2019-03-09T19:07:19.214Z,6.05
2019-03-09T19:09:50.398Z,6.25
2019-03-09T19:12:27.261Z,6.24
2019-03-09T19:15:01.157Z,6.03
2019-03-09T19:17:38.406Z,4.81
2019-03-09T19:20:12.606Z,4.37
2019-03-09T19:22:43.453Z,4.23
2019-03-09T19:25:14.722Z,4.16
2019-03-09T19:27:46.769Z,4.11
2019-03-09T19:30:21.225Z,4.10
2019-03-09T19:33:00.580Z,4.15
2019-03-09T19:35:45.033Z,4.15
2019-03-09T19:38:20.837Z,4.20
2019-03-09T19:40:54.690Z,4.29
2019-03-09T19:43:34.912Z,4.29
2019-03-09T19:46:11.770Z,4.32
2019-03-09T19:48:46.199Z,4.31
2019-03-09T19:51:50.548Z,4.26
2019-03-09T19:54:27.397Z,4.27
2019-03-09T19:56:58.763Z,4.32
2019-03-09T19:59:39.089Z,4.35
2019-03-09T20:02:09.942Z,4.39
2019-03-09T20:04:41.349Z,4.40
2019-03-09T20:07:12.434Z,4.37
2019-03-09T20:09:45.353Z,4.40
2019-03-09T20:12:20.818Z,4.42
2019-03-09T20:14:54.300Z,4.39
2019-03-09T20:17:27.114Z,4.42
2019-03-09T20:19:58.095Z,4.37
2019-03-09T20:22:32.012Z,4.29
2019-03-09T20:25:06.827Z,4.36
2019-03-09T20:27:39.185Z,4.37
2019-03-09T20:30:10.759Z,4.40
2019-03-09T20:32:47.366Z,4.37
2019-03-09T20:35:22.431Z,4.31
2019-03-09T20:37:56.354Z,4.30
2019-03-09T20:40:28.158Z,4.27
2019-03-09T20:43:03.904Z,4.27
2019-03-09T20:45:37.495Z,4.28
2019-03-09T20:48:12.482Z,4.21
2019-03-09T20:50:48.302Z,4.21
2019-03-09T20:53:21.197Z,4.23
2019-03-09T20:56:03.204Z,4.22
2019-03-09T20:58:37.433Z,4.15
2019-03-09T21:01:08.595Z,4.12
2019-03-09T21:03:40.538Z,4.11
2019-03-09T21:06:11.441Z,4.16
2019-03-09T21:08:45.671Z,4.13
2019-03-09T21:11:38.925Z,4.03
2019-03-09T21:14:10.285Z,3.98
2019-03-09T21:16:44.949Z,3.95
2019-03-09T21:19:17.624Z,3.93
2019-03-09T21:21:49.776Z,3.96
2019-03-09T21:24:26.798Z,3.94
2019-03-09T21:27:01.063Z,3.97
2019-03-09T21:29:40.804Z,3.95
2019-03-09T21:32:18.153Z,3.91
2019-03-09T21:35:04.419Z,3.94
2019-03-09T21:37:40.124Z,3.94
2019-03-09T21:40:12.533Z,3.86
2019-03-09T21:42:48.107Z,3.86
2019-03-09T21:45:19.467Z,3.84
2019-03-09T21:47:55.419Z,3.81
2019-03-09T21:50:28.981Z,3.78
2019-03-09T21:53:08.823Z,3.68
2019-03-09T21:55:47.351Z,3.63
2019-03-09T21:58:21.938Z,3.60
2019-03-09T22:00:58.349Z,3.57
2019-03-09T22:03:31.156Z,3.53
2019-03-09T22:06:06.639Z,3.60
2019-03-09T22:08:38.191Z,3.59
2019-03-09T22:11:10.351Z,3.57
2019-03-09T22:13:41.178Z,3.54
2019-03-09T22:16:14.213Z,3.48
2019-03-09T22:18:44.623Z,3.46
2019-03-09T22:21:17.847Z,3.40
2019-03-09T22:23:49.497Z,3.31
2019-03-09T22:26:32.258Z,3.31
2019-03-09T22:29:06.886Z,3.27
2019-03-09T22:31:51.283Z,3.23
2019-03-09T22:34:24.685Z,3.22
2019-03-09T22:37:02.179Z,3.25
2019-03-09T22:39:43.602Z,3.19
2019-03-09T22:42:21.648Z,3.27
2019-03-09T22:44:57.528Z,3.23
2019-03-09T22:47:28.685Z,3.17
2019-03-09T22:50:06.374Z,3.09
2019-03-09T22:52:40.341Z,3.08
2019-03-09T22:55:18.114Z,3.08
2019-03-09T22:57:49.137Z,3.18
2019-03-09T23:00:21.738Z,3.22
2019-03-09T23:02:54.088Z,3.24
2019-03-09T23:05:26.113Z,3.29
2019-03-09T23:07:57.243Z,3.34
2019-03-09T23:10:32.620Z,3.38
2019-03-09T23:13:04.571Z,3.40
2019-03-09T23:15:41.295Z,3.43
2019-03-09T23:18:31.137Z,3.44
2019-03-09T23:21:02.421Z,3.41
2019-03-09T23:23:34.782Z,3.44
2019-03-09T23:26:10.211Z,3.47
2019-03-09T23:29:04.816Z,3.47
2019-03-09T23:31:44.457Z,3.49
2019-03-09T23:34:18.216Z,3.50
2019-03-09T23:36:52.453Z,3.53
2019-03-09T23:39:27.579Z,3.54
2019-03-09T23:42:07.818Z,3.53
2019-03-09T23:44:50.425Z,3.54
2019-03-09T23:47:26.867Z,3.59
2019-03-09T23:50:17.351Z,3.65
2019-03-09T23:52:55.779Z,3.66
2019-03-09T23:55:26.896Z,3.68
2019-03-09T23:58:02.214Z,3.70
